sensor_id;sensor_type;location;lat;lon;timestamp;P1;durP1;ratioP1;P2;durP2;ratioP2
21297;SDS011;10808;48.010;11.326;2022-11-24T00:01:26;6.63;;;2.17;;
21297;SDS011;10808;48.010;11.326;2022-11-24T00:06:23;6.18;;;2.10;;
21297;SDS011;10808;48.010;11.326;2022-11-24T00:08:50;6.03;;;1.98;;
21297;SDS011;10808;48.010;11.326;2022-11-24T00:11:20;5.15;;;2.03;;
21297;SDS011;10808;48.010;11.326;2022-11-24T00:13:48;7.37;;;1.87;;
21297;SDS011;10808;48.010;11.326;2022-11-24T00:16:22;5.37;;;2.10;;
21297;SDS011;10808;48.010;11.326;2022-11-24T00:18:51;7.72;;;2.08;;
21297;SDS011;10808;48.010;11.326;2022-11-24T00:21:20;5.22;;;2.20;;
21297;SDS011;10808;48.010;11.326;2022-11-24T00:23:47;5.50;;;2.15;;
21297;SDS011;10808;48.010;11.326;2022-11-24T00:26:18;5.80;;;2.00;;
21297;SDS011;10808;48.010;11.326;2022-11-24T00:28:46;7.33;;;2.20;;
21297;SDS011;10808;48.010;11.326;2022-11-24T00:33:55;8.07;;;2.33;;
21297;SDS011;10808;48.010;11.326;2022-11-24T00:36:23;5.18;;;1.95;;
21297;SDS011;10808;48.010;11.326;2022-11-24T00:38:57;8.93;;;2.40;;
21297;SDS011;10808;48.010;11.326;2022-11-24T00:41:26;7.78;;;2.00;;
21297;SDS011;10808;48.010;11.326;2022-11-24T00:43:53;5.43;;;1.75;;
21297;SDS011;10808;48.010;11.326;2022-11-24T00:46:19;6.47;;;1.87;;
21297;SDS011;10808;48.010;11.326;2022-11-24T00:48:47;7.20;;;1.92;;
21297;SDS011;10808;48.010;11.326;2022-11-24T00:51:13;6.18;;;1.88;;
21297;SDS011;10808;48.010;11.326;2022-11-24T00:53:40;8.20;;;2.30;;
21297;SDS011;10808;48.010;11.326;2022-11-24T00:56:07;6.22;;;1.80;;
21297;SDS011;10808;48.010;11.326;2022-11-24T00:58:34;7.93;;;2.30;;
21297;SDS011;10808;48.010;11.326;2022-11-24T01:01:02;6.80;;;2.15;;
21297;SDS011;10808;48.010;11.326;2022-11-24T01:03:29;4.93;;;1.65;;
21297;SDS011;10808;48.010;11.326;2022-11-24T01:06:00;7.57;;;2.03;;
21297;SDS011;10808;48.010;11.326;2022-11-24T01:08:31;6.05;;;1.88;;
21297;SDS011;10808;48.010;11.326;2022-11-24T01:13:43;10.30;;;2.10;;
21297;SDS011;10808;48.010;11.326;2022-11-24T01:18:50;8.50;;;2.15;;
21297;SDS011;10808;48.010;11.326;2022-11-24T01:21:17;5.83;;;1.70;;
21297;SDS011;10808;48.010;11.326;2022-11-24T01:23:43;5.30;;;2.10;;
21297;SDS011;10808;48.010;11.326;2022-11-24T01:26:10;4.53;;;1.50;;
21297;SDS011;10808;48.010;11.326;2022-11-24T01:28:38;4.70;;;1.70;;
21297;SDS011;10808;48.010;11.326;2022-11-24T01:31:05;4.30;;;1.52;;
21297;SDS011;10808;48.010;11.326;2022-11-24T01:33:32;4.23;;;1.50;;
21297;SDS011;10808;48.010;11.326;2022-11-24T01:35:59;3.88;;;1.60;;
21297;SDS011;10808;48.010;11.326;2022-11-24T01:38:26;4.75;;;1.80;;
21297;SDS011;10808;48.010;11.326;2022-11-24T01:40:59;4.35;;;1.40;;
21297;SDS011;10808;48.010;11.326;2022-11-24T01:43:26;5.50;;;1.50;;
21297;SDS011;10808;48.010;11.326;2022-11-24T01:45:52;5.60;;;1.30;;
21297;SDS011;10808;48.010;11.326;2022-11-24T01:48:19;5.53;;;1.45;;
21297;SDS011;10808;48.010;11.326;2022-11-24T01:51:07;4.28;;;1.20;;
21297;SDS011;10808;48.010;11.326;2022-11-24T01:53:38;3.75;;;1.52;;
21297;SDS011;10808;48.010;11.326;2022-11-24T01:56:08;4.93;;;1.60;;
21297;SDS011;10808;48.010;11.326;2022-11-24T01:58:37;3.53;;;1.60;;
21297;SDS011;10808;48.010;11.326;2022-11-24T02:01:06;3.42;;;1.30;;
21297;SDS011;10808;48.010;11.326;2022-11-24T02:03:34;3.17;;;1.30;;
21297;SDS011;10808;48.010;11.326;2022-11-24T02:06:17;3.33;;;1.25;;
21297;SDS011;10808;48.010;11.326;2022-11-24T02:08:49;3.88;;;1.40;;
21297;SDS011;10808;48.010;11.326;2022-11-24T02:11:22;3.17;;;1.20;;
21297;SDS011;10808;48.010;11.326;2022-11-24T02:13:50;2.40;;;1.20;;
21297;SDS011;10808;48.010;11.326;2022-11-24T02:16:18;3.15;;;1.27;;
21297;SDS011;10808;48.010;11.326;2022-11-24T02:18:44;2.30;;;1.17;;
21297;SDS011;10808;48.010;11.326;2022-11-24T02:21:11;3.95;;;1.60;;
21297;SDS011;10808;48.010;11.326;2022-11-24T02:23:43;3.90;;;1.23;;
21297;SDS011;10808;48.010;11.326;2022-11-24T02:26:33;3.33;;;1.23;;
21297;SDS011;10808;48.010;11.326;2022-11-24T02:29:07;3.60;;;1.27;;
21297;SDS011;10808;48.010;11.326;2022-11-24T02:31:36;2.05;;;1.20;;
21297;SDS011;10808;48.010;11.326;2022-11-24T02:34:03;2.33;;;1.00;;
21297;SDS011;10808;48.010;11.326;2022-11-24T02:36:29;4.63;;;1.38;;
21297;SDS011;10808;48.010;11.326;2022-11-24T02:38:55;1.70;;;0.98;;
21297;SDS011;10808;48.010;11.326;2022-11-24T02:41:21;3.83;;;1.40;;
21297;SDS011;10808;48.010;11.326;2022-11-24T02:43:53;3.72;;;1.20;;
21297;SDS011;10808;48.010;11.326;2022-11-24T02:46:20;4.80;;;1.20;;
21297;SDS011;10808;48.010;11.326;2022-11-24T02:48:47;3.22;;;1.27;;
21297;SDS011;10808;48.010;11.326;2022-11-24T02:51:13;2.22;;;1.02;;
21297;SDS011;10808;48.010;11.326;2022-11-24T02:53:39;2.25;;;1.10;;
21297;SDS011;10808;48.010;11.326;2022-11-24T02:56:05;4.10;;;1.10;;
21297;SDS011;10808;48.010;11.326;2022-11-24T02:58:31;3.45;;;1.35;;
21297;SDS011;10808;48.010;11.326;2022-11-24T03:00:57;2.45;;;1.08;;
21297;SDS011;10808;48.010;11.326;2022-11-24T03:03:24;2.55;;;1.20;;
21297;SDS011;10808;48.010;11.326;2022-11-24T03:05:51;2.08;;;1.00;;
21297;SDS011;10808;48.010;11.326;2022-11-24T03:08:17;4.07;;;1.10;;
21297;SDS011;10808;48.010;11.326;2022-11-24T03:10:43;4.10;;;1.03;;
21297;SDS011;10808;48.010;11.326;2022-11-24T03:13:09;3.80;;;1.25;;
21297;SDS011;10808;48.010;11.326;2022-11-24T03:15:35;2.33;;;0.90;;
21297;SDS011;10808;48.010;11.326;2022-11-24T03:18:02;4.43;;;1.02;;
21297;SDS011;10808;48.010;11.326;2022-11-24T03:20:28;3.17;;;1.00;;
21297;SDS011;10808;48.010;11.326;2022-11-24T03:22:55;2.17;;;1.10;;
21297;SDS011;10808;48.010;11.326;2022-11-24T03:25:21;2.78;;;0.90;;
21297;SDS011;10808;48.010;11.326;2022-11-24T03:27:47;2.47;;;0.90;;
21297;SDS011;10808;48.010;11.326;2022-11-24T03:30:14;2.20;;;0.90;;
21297;SDS011;10808;48.010;11.326;2022-11-24T03:32:40;1.83;;;0.80;;
21297;SDS011;10808;48.010;11.326;2022-11-24T03:35:06;2.05;;;0.70;;
21297;SDS011;10808;48.010;11.326;2022-11-24T03:37:33;2.78;;;0.70;;
21297;SDS011;10808;48.010;11.326;2022-11-24T03:39:59;2.42;;;0.82;;
21297;SDS011;10808;48.010;11.326;2022-11-24T03:42:25;2.28;;;0.88;;
21297;SDS011;10808;48.010;11.326;2022-11-24T03:44:51;2.33;;;1.05;;
21297;SDS011;10808;48.010;11.326;2022-11-24T03:47:17;1.92;;;0.80;;
21297;SDS011;10808;48.010;11.326;2022-11-24T03:49:43;2.50;;;1.00;;
21297;SDS011;10808;48.010;11.326;2022-11-24T03:52:10;3.17;;;1.30;;
21297;SDS011;10808;48.010;11.326;2022-11-24T03:54:36;2.05;;;1.10;;
21297;SDS011;10808;48.010;11.326;2022-11-24T03:57:02;3.28;;;1.00;;
21297;SDS011;10808;48.010;11.326;2022-11-24T03:59:28;2.30;;;0.95;;
21297;SDS011;10808;48.010;11.326;2022-11-24T04:01:54;3.77;;;1.27;;
21297;SDS011;10808;48.010;11.326;2022-11-24T04:04:20;3.33;;;1.27;;
21297;SDS011;10808;48.010;11.326;2022-11-24T04:06:46;3.97;;;1.30;;
21297;SDS011;10808;48.010;11.326;2022-11-24T04:09:13;4.30;;;1.30;;
21297;SDS011;10808;48.010;11.326;2022-11-24T04:11:39;3.10;;;1.48;;
21297;SDS011;10808;48.010;11.326;2022-11-24T04:14:24;5.35;;;1.50;;
21297;SDS011;10808;48.010;11.326;2022-11-24T04:16:50;6.35;;;1.70;;
21297;SDS011;10808;48.010;11.326;2022-11-24T04:19:16;5.95;;;1.50;;
21297;SDS011;10808;48.010;11.326;2022-11-24T04:21:42;4.82;;;1.50;;
21297;SDS011;10808;48.010;11.326;2022-11-24T04:24:08;5.70;;;1.70;;
21297;SDS011;10808;48.010;11.326;2022-11-24T04:26:34;5.88;;;1.80;;
21297;SDS011;10808;48.010;11.326;2022-11-24T04:29:00;5.88;;;1.80;;
21297;SDS011;10808;48.010;11.326;2022-11-24T04:31:27;4.38;;;1.60;;
21297;SDS011;10808;48.010;11.326;2022-11-24T04:33:53;5.75;;;1.80;;
21297;SDS011;10808;48.010;11.326;2022-11-24T04:36:19;5.88;;;1.88;;
21297;SDS011;10808;48.010;11.326;2022-11-24T04:38:45;9.45;;;2.20;;
21297;SDS011;10808;48.010;11.326;2022-11-24T04:41:12;4.78;;;1.65;;
21297;SDS011;10808;48.010;11.326;2022-11-24T04:43:38;6.45;;;1.70;;
21297;SDS011;10808;48.010;11.326;2022-11-24T04:46:04;4.82;;;1.60;;
21297;SDS011;10808;48.010;11.326;2022-11-24T04:48:30;5.82;;;1.67;;
21297;SDS011;10808;48.010;11.326;2022-11-24T04:50:56;6.80;;;1.75;;
21297;SDS011;10808;48.010;11.326;2022-11-24T04:53:22;9.77;;;1.85;;
21297;SDS011;10808;48.010;11.326;2022-11-24T04:55:48;7.85;;;1.80;;
21297;SDS011;10808;48.010;11.326;2022-11-24T04:58:14;7.88;;;1.90;;
21297;SDS011;10808;48.010;11.326;2022-11-24T05:00:40;6.47;;;2.30;;
21297;SDS011;10808;48.010;11.326;2022-11-24T05:03:07;7.50;;;1.90;;
21297;SDS011;10808;48.010;11.326;2022-11-24T05:05:33;9.32;;;2.05;;
21297;SDS011;10808;48.010;11.326;2022-11-24T05:07:59;8.50;;;1.70;;
21297;SDS011;10808;48.010;11.326;2022-11-24T05:10:26;5.82;;;1.67;;
21297;SDS011;10808;48.010;11.326;2022-11-24T05:13:10;10.17;;;2.10;;
21297;SDS011;10808;48.010;11.326;2022-11-24T05:15:38;6.25;;;1.75;;
21297;SDS011;10808;48.010;11.326;2022-11-24T05:18:05;9.85;;;2.28;;
21297;SDS011;10808;48.010;11.326;2022-11-24T05:20:33;6.75;;;2.38;;
21297;SDS011;10808;48.010;11.326;2022-11-24T05:23:03;7.82;;;1.90;;
21297;SDS011;10808;48.010;11.326;2022-11-24T05:25:31;12.77;;;3.42;;
21297;SDS011;10808;48.010;11.326;2022-11-24T05:27:59;14.60;;;3.95;;
21297;SDS011;10808;48.010;11.326;2022-11-24T05:30:26;12.55;;;3.00;;
21297;SDS011;10808;48.010;11.326;2022-11-24T05:32:53;10.88;;;2.50;;
21297;SDS011;10808;48.010;11.326;2022-11-24T05:35:19;5.82;;;1.60;;
21297;SDS011;10808;48.010;11.326;2022-11-24T05:37:46;6.60;;;1.58;;
21297;SDS011;10808;48.010;11.326;2022-11-24T05:40:12;11.57;;;1.92;;
21297;SDS011;10808;48.010;11.326;2022-11-24T05:42:39;8.67;;;2.17;;
21297;SDS011;10808;48.010;11.326;2022-11-24T05:45:05;9.77;;;1.83;;
21297;SDS011;10808;48.010;11.326;2022-11-24T05:47:40;11.95;;;2.15;;
21297;SDS011;10808;48.010;11.326;2022-11-24T05:50:08;10.32;;;1.90;;
21297;SDS011;10808;48.010;11.326;2022-11-24T05:52:35;7.60;;;1.88;;
21297;SDS011;10808;48.010;11.326;2022-11-24T05:55:02;8.27;;;1.90;;
21297;SDS011;10808;48.010;11.326;2022-11-24T05:57:29;7.90;;;1.80;;
21297;SDS011;10808;48.010;11.326;2022-11-24T05:59:55;8.23;;;2.08;;
21297;SDS011;10808;48.010;11.326;2022-11-24T06:02:21;9.48;;;1.80;;
21297;SDS011;10808;48.010;11.326;2022-11-24T06:04:47;7.47;;;1.60;;
21297;SDS011;10808;48.010;11.326;2022-11-24T06:07:14;9.90;;;2.20;;
21297;SDS011;10808;48.010;11.326;2022-11-24T06:09:40;8.98;;;1.98;;
21297;SDS011;10808;48.010;11.326;2022-11-24T06:12:11;8.35;;;1.77;;
21297;SDS011;10808;48.010;11.326;2022-11-24T06:14:37;8.23;;;2.00;;
21297;SDS011;10808;48.010;11.326;2022-11-24T06:17:03;5.38;;;1.48;;
21297;SDS011;10808;48.010;11.326;2022-11-24T06:19:30;9.87;;;2.10;;
21297;SDS011;10808;48.010;11.326;2022-11-24T06:21:56;9.88;;;2.15;;
21297;SDS011;10808;48.010;11.326;2022-11-24T06:24:22;8.15;;;1.70;;
21297;SDS011;10808;48.010;11.326;2022-11-24T06:26:48;8.88;;;1.55;;
21297;SDS011;10808;48.010;11.326;2022-11-24T06:29:14;7.95;;;1.83;;
21297;SDS011;10808;48.010;11.326;2022-11-24T06:31:41;7.03;;;1.70;;
21297;SDS011;10808;48.010;11.326;2022-11-24T06:34:08;7.13;;;1.87;;
21297;SDS011;10808;48.010;11.326;2022-11-24T06:36:36;7.38;;;1.60;;
21297;SDS011;10808;48.010;11.326;2022-11-24T06:39:03;8.10;;;1.73;;
21297;SDS011;10808;48.010;11.326;2022-11-24T06:41:30;8.20;;;1.70;;
21297;SDS011;10808;48.010;11.326;2022-11-24T06:43:57;9.02;;;1.60;;
21297;SDS011;10808;48.010;11.326;2022-11-24T06:46:23;7.18;;;2.00;;
21297;SDS011;10808;48.010;11.326;2022-11-24T06:48:52;6.25;;;1.77;;
21297;SDS011;10808;48.010;11.326;2022-11-24T06:51:18;8.73;;;2.03;;
21297;SDS011;10808;48.010;11.326;2022-11-24T06:53:44;8.18;;;2.38;;
21297;SDS011;10808;48.010;11.326;2022-11-24T06:56:11;9.80;;;2.55;;
21297;SDS011;10808;48.010;11.326;2022-11-24T06:58:39;7.97;;;1.90;;
21297;SDS011;10808;48.010;11.326;2022-11-24T07:01:07;8.10;;;2.05;;
21297;SDS011;10808;48.010;11.326;2022-11-24T07:03:33;9.07;;;2.13;;
21297;SDS011;10808;48.010;11.326;2022-11-24T07:05:59;8.48;;;2.00;;
21297;SDS011;10808;48.010;11.326;2022-11-24T07:08:26;6.38;;;2.05;;
21297;SDS011;10808;48.010;11.326;2022-11-24T07:10:53;8.80;;;1.93;;
21297;SDS011;10808;48.010;11.326;2022-11-24T07:13:19;5.28;;;1.63;;
21297;SDS011;10808;48.010;11.326;2022-11-24T07:15:45;10.18;;;1.77;;
21297;SDS011;10808;48.010;11.326;2022-11-24T07:18:12;7.57;;;1.70;;
21297;SDS011;10808;48.010;11.326;2022-11-24T07:20:38;6.67;;;1.50;;
21297;SDS011;10808;48.010;11.326;2022-11-24T07:23:04;8.48;;;1.83;;
21297;SDS011;10808;48.010;11.326;2022-11-24T07:25:31;5.85;;;1.75;;
21297;SDS011;10808;48.010;11.326;2022-11-24T07:28:00;8.02;;;2.00;;
21297;SDS011;10808;48.010;11.326;2022-11-24T07:30:26;6.43;;;1.63;;
21297;SDS011;10808;48.010;11.326;2022-11-24T07:33:00;9.90;;;2.00;;
21297;SDS011;10808;48.010;11.326;2022-11-24T07:35:27;10.10;;;2.15;;
21297;SDS011;10808;48.010;11.326;2022-11-24T07:37:54;7.73;;;2.20;;
21297;SDS011;10808;48.010;11.326;2022-11-24T07:40:21;10.93;;;2.13;;
21297;SDS011;10808;48.010;11.326;2022-11-24T07:42:48;13.17;;;2.83;;
21297;SDS011;10808;48.010;11.326;2022-11-24T07:45:14;7.38;;;1.80;;
21297;SDS011;10808;48.010;11.326;2022-11-24T07:47:41;10.97;;;2.30;;
21297;SDS011;10808;48.010;11.326;2022-11-24T07:50:08;6.57;;;2.08;;
21297;SDS011;10808;48.010;11.326;2022-11-24T07:52:35;7.15;;;2.00;;
21297;SDS011;10808;48.010;11.326;2022-11-24T07:55:02;8.77;;;2.13;;
21297;SDS011;10808;48.010;11.326;2022-11-24T07:57:29;8.23;;;2.03;;
21297;SDS011;10808;48.010;11.326;2022-11-24T07:59:55;9.63;;;2.10;;
21297;SDS011;10808;48.010;11.326;2022-11-24T08:02:21;8.60;;;1.70;;
21297;SDS011;10808;48.010;11.326;2022-11-24T08:04:47;7.00;;;1.50;;
21297;SDS011;10808;48.010;11.326;2022-11-24T08:07:13;7.20;;;1.90;;
21297;SDS011;10808;48.010;11.326;2022-11-24T08:09:40;8.45;;;1.60;;
21297;SDS011;10808;48.010;11.326;2022-11-24T08:12:06;10.40;;;2.00;;
21297;SDS011;10808;48.010;11.326;2022-11-24T08:14:32;9.90;;;1.95;;
21297;SDS011;10808;48.010;11.326;2022-11-24T08:16:58;8.85;;;1.88;;
21297;SDS011;10808;48.010;11.326;2022-11-24T08:19:25;8.35;;;1.70;;
21297;SDS011;10808;48.010;11.326;2022-11-24T08:21:51;7.20;;;1.88;;
21297;SDS011;10808;48.010;11.326;2022-11-24T08:24:20;7.20;;;1.63;;
21297;SDS011;10808;48.010;11.326;2022-11-24T08:26:47;11.40;;;2.03;;
21297;SDS011;10808;48.010;11.326;2022-11-24T08:29:13;10.93;;;2.20;;
21297;SDS011;10808;48.010;11.326;2022-11-24T08:31:39;9.38;;;1.90;;
21297;SDS011;10808;48.010;11.326;2022-11-24T08:34:06;6.85;;;1.90;;
21297;SDS011;10808;48.010;11.326;2022-11-24T08:36:32;7.88;;;1.85;;
21297;SDS011;10808;48.010;11.326;2022-11-24T08:38:59;9.40;;;2.15;;
21297;SDS011;10808;48.010;11.326;2022-11-24T08:41:26;7.68;;;1.90;;
21297;SDS011;10808;48.010;11.326;2022-11-24T08:43:53;7.97;;;1.80;;
21297;SDS011;10808;48.010;11.326;2022-11-24T08:46:20;8.63;;;1.65;;
21297;SDS011;10808;48.010;11.326;2022-11-24T08:48:50;8.50;;;2.10;;
21297;SDS011;10808;48.010;11.326;2022-11-24T08:51:19;9.35;;;2.47;;
21297;SDS011;10808;48.010;11.326;2022-11-24T08:53:56;8.00;;;1.45;;
21297;SDS011;10808;48.010;11.326;2022-11-24T08:56:24;7.47;;;1.85;;
21297;SDS011;10808;48.010;11.326;2022-11-24T08:58:55;6.60;;;1.70;;
21297;SDS011;10808;48.010;11.326;2022-11-24T09:01:22;8.02;;;1.85;;
21297;SDS011;10808;48.010;11.326;2022-11-24T09:03:49;6.90;;;1.77;;
21297;SDS011;10808;48.010;11.326;2022-11-24T09:06:16;8.70;;;1.67;;
21297;SDS011;10808;48.010;11.326;2022-11-24T09:08:44;10.35;;;1.80;;
21297;SDS011;10808;48.010;11.326;2022-11-24T09:11:10;9.10;;;2.37;;
21297;SDS011;10808;48.010;11.326;2022-11-24T09:13:38;9.13;;;2.00;;
21297;SDS011;10808;48.010;11.326;2022-11-24T09:16:06;6.55;;;1.80;;
21297;SDS011;10808;48.010;11.326;2022-11-24T09:18:34;7.22;;;1.92;;
21297;SDS011;10808;48.010;11.326;2022-11-24T09:21:14;7.97;;;1.65;;
21297;SDS011;10808;48.010;11.326;2022-11-24T09:23:43;9.45;;;2.05;;
21297;SDS011;10808;48.010;11.326;2022-11-24T09:26:14;8.17;;;2.03;;
21297;SDS011;10808;48.010;11.326;2022-11-24T09:29:06;5.90;;;1.97;;
21297;SDS011;10808;48.010;11.326;2022-11-24T09:31:34;7.17;;;2.07;;
21297;SDS011;10808;48.010;11.326;2022-11-24T09:34:02;8.00;;;1.90;;
21297;SDS011;10808;48.010;11.326;2022-11-24T09:36:30;5.82;;;1.67;;
21297;SDS011;10808;48.010;11.326;2022-11-24T09:38:56;6.97;;;1.60;;
21297;SDS011;10808;48.010;11.326;2022-11-24T09:41:31;7.60;;;1.52;;
21297;SDS011;10808;48.010;11.326;2022-11-24T09:47:31;8.70;;;1.70;;
21297;SDS011;10808;48.010;11.326;2022-11-24T09:49:45;7.57;;;1.67;;
21297;SDS011;10808;48.010;11.326;2022-11-24T09:53:09;5.83;;;1.30;;
21297;SDS011;10808;48.010;11.326;2022-11-24T09:55:39;7.32;;;1.42;;
21297;SDS011;10808;48.010;11.326;2022-11-24T10:00:54;6.85;;;1.70;;
21297;SDS011;10808;48.010;11.326;2022-11-24T10:03:24;8.38;;;1.67;;
21297;SDS011;10808;48.010;11.326;2022-11-24T10:05:56;8.75;;;1.90;;
21297;SDS011;10808;48.010;11.326;2022-11-24T10:11:12;4.93;;;1.45;;
21297;SDS011;10808;48.010;11.326;2022-11-24T10:24:47;7.35;;;2.10;;
21297;SDS011;10808;48.010;11.326;2022-11-24T10:27:15;5.68;;;2.20;;
21297;SDS011;10808;48.010;11.326;2022-11-24T10:29:52;10.75;;;2.58;;
21297;SDS011;10808;48.010;11.326;2022-11-24T10:34:51;6.95;;;2.13;;
21297;SDS011;10808;48.010;11.326;2022-11-24T10:37:27;6.57;;;1.92;;
21297;SDS011;10808;48.010;11.326;2022-11-24T10:42:46;7.05;;;1.42;;
21297;SDS011;10808;48.010;11.326;2022-11-24T10:45:17;6.35;;;2.13;;
21297;SDS011;10808;48.010;11.326;2022-11-24T10:47:48;6.85;;;1.88;;
21297;SDS011;10808;48.010;11.326;2022-11-24T10:50:21;5.82;;;1.60;;
21297;SDS011;10808;48.010;11.326;2022-11-24T10:53:13;7.82;;;2.45;;
21297;SDS011;10808;48.010;11.326;2022-11-24T10:58:21;5.95;;;2.03;;
21297;SDS011;10808;48.010;11.326;2022-11-24T11:00:56;5.70;;;1.65;;
21297;SDS011;10808;48.010;11.326;2022-11-24T11:03:29;5.47;;;1.65;;
21297;SDS011;10808;48.010;11.326;2022-11-24T11:06:02;4.37;;;1.30;;
21297;SDS011;10808;48.010;11.326;2022-11-24T11:08:38;6.97;;;1.50;;
21297;SDS011;10808;48.010;11.326;2022-11-24T11:11:21;7.57;;;1.92;;
21297;SDS011;10808;48.010;11.326;2022-11-24T11:13:53;4.90;;;1.70;;
21297;SDS011;10808;48.010;11.326;2022-11-24T11:18:51;6.22;;;1.48;;
21297;SDS011;10808;48.010;11.326;2022-11-24T11:24:02;4.90;;;1.27;;
21297;SDS011;10808;48.010;11.326;2022-11-24T11:26:36;5.85;;;1.52;;
21297;SDS011;10808;48.010;11.326;2022-11-24T11:31:35;5.00;;;1.50;;
21297;SDS011;10808;48.010;11.326;2022-11-24T11:36:44;4.18;;;1.33;;
21297;SDS011;10808;48.010;11.326;2022-11-24T11:39:55;5.22;;;1.20;;
21297;SDS011;10808;48.010;11.326;2022-11-24T11:42:24;4.85;;;1.52;;
21297;SDS011;10808;48.010;11.326;2022-11-24T11:44:55;4.80;;;1.50;;
21297;SDS011;10808;48.010;11.326;2022-11-24T11:48:01;4.32;;;1.25;;
21297;SDS011;10808;48.010;11.326;2022-11-24T11:50:40;4.25;;;1.20;;
21297;SDS011;10808;48.010;11.326;2022-11-24T11:53:25;4.00;;;1.40;;
21297;SDS011;10808;48.010;11.326;2022-11-24T11:55:53;3.67;;;1.10;;
21297;SDS011;10808;48.010;11.326;2022-11-24T11:58:49;3.25;;;1.20;;
21297;SDS011;10808;48.010;11.326;2022-11-24T12:01:29;2.60;;;1.20;;
21297;SDS011;10808;48.010;11.326;2022-11-24T12:04:23;2.42;;;1.10;;
21297;SDS011;10808;48.010;11.326;2022-11-24T12:09:53;4.80;;;1.40;;
21297;SDS011;10808;48.010;11.326;2022-11-24T12:12:48;5.55;;;1.48;;
21297;SDS011;10808;48.010;11.326;2022-11-24T12:15:32;3.15;;;1.20;;
21297;SDS011;10808;48.010;11.326;2022-11-24T12:23:24;3.47;;;1.60;;
21297;SDS011;10808;48.010;11.326;2022-11-24T12:26:20;3.95;;;1.52;;
21297;SDS011;10808;48.010;11.326;2022-11-24T12:31:35;5.60;;;2.00;;
21297;SDS011;10808;48.010;11.326;2022-11-24T12:37:22;5.45;;;1.60;;
21297;SDS011;10808;48.010;11.326;2022-11-24T12:39:54;5.38;;;1.52;;
21297;SDS011;10808;48.010;11.326;2022-11-24T12:42:36;4.30;;;1.70;;
21297;SDS011;10808;48.010;11.326;2022-11-24T12:45:13;5.22;;;1.83;;
21297;SDS011;10808;48.010;11.326;2022-11-24T12:50:14;5.20;;;1.60;;
21297;SDS011;10808;48.010;11.326;2022-11-24T12:52:45;4.97;;;1.58;;
21297;SDS011;10808;48.010;11.326;2022-11-24T12:55:18;6.03;;;1.83;;
21297;SDS011;10808;48.010;11.326;2022-11-24T12:58:31;5.75;;;1.80;;
21297;SDS011;10808;48.010;11.326;2022-11-24T13:03:25;5.20;;;2.03;;
21297;SDS011;10808;48.010;11.326;2022-11-24T13:06:12;4.65;;;2.17;;
21297;SDS011;10808;48.010;11.326;2022-11-24T13:08:43;3.70;;;2.10;;
21297;SDS011;10808;48.010;11.326;2022-11-24T13:13:58;5.55;;;2.00;;
21297;SDS011;10808;48.010;11.326;2022-11-24T13:16:27;3.43;;;1.70;;
21297;SDS011;10808;48.010;11.326;2022-11-24T13:18:54;6.20;;;1.92;;
21297;SDS011;10808;48.010;11.326;2022-11-24T13:26:52;5.00;;;1.88;;
21297;SDS011;10808;48.010;11.326;2022-11-24T13:29:51;4.80;;;1.92;;
21297;SDS011;10808;48.010;11.326;2022-11-24T13:37:43;6.80;;;2.22;;
21297;SDS011;10808;48.010;11.326;2022-11-24T13:48:50;5.07;;;1.58;;
21297;SDS011;10808;48.010;11.326;2022-11-24T13:53:40;3.80;;;1.20;;
21297;SDS011;10808;48.010;11.326;2022-11-24T13:58:43;1.27;;;0.60;;
21297;SDS011;10808;48.010;11.326;2022-11-24T14:01:22;1.70;;;0.70;;
21297;SDS011;10808;48.010;11.326;2022-11-24T14:06:36;2.90;;;1.10;;
21297;SDS011;10808;48.010;11.326;2022-11-24T14:12:00;1.70;;;0.65;;
21297;SDS011;10808;48.010;11.326;2022-11-24T14:14:30;3.28;;;1.00;;
21297;SDS011;10808;48.010;11.326;2022-11-24T14:17:13;4.28;;;1.55;;
21297;SDS011;10808;48.010;11.326;2022-11-24T14:19:44;3.38;;;1.23;;
21297;SDS011;10808;48.010;11.326;2022-11-24T14:22:15;4.55;;;1.20;;
21297;SDS011;10808;48.010;11.326;2022-11-24T14:24:43;5.63;;;2.10;;
21297;SDS011;10808;48.010;11.326;2022-11-24T14:27:15;5.00;;;2.55;;
21297;SDS011;10808;48.010;11.326;2022-11-24T14:29:53;9.00;;;3.47;;
21297;SDS011;10808;48.010;11.326;2022-11-24T14:32:21;5.55;;;1.80;;
21297;SDS011;10808;48.010;11.326;2022-11-24T14:34:47;4.15;;;1.80;;
21297;SDS011;10808;48.010;11.326;2022-11-24T14:37:13;4.00;;;1.60;;
21297;SDS011;10808;48.010;11.326;2022-11-24T14:39:40;6.35;;;2.00;;
21297;SDS011;10808;48.010;11.326;2022-11-24T14:44:52;5.28;;;1.70;;
21297;SDS011;10808;48.010;11.326;2022-11-24T14:49:56;5.05;;;1.77;;
21297;SDS011;10808;48.010;11.326;2022-11-24T14:52:30;4.60;;;1.77;;
21297;SDS011;10808;48.010;11.326;2022-11-24T14:54:57;3.55;;;1.70;;
21297;SDS011;10808;48.010;11.326;2022-11-24T14:57:32;4.72;;;1.42;;
21297;SDS011;10808;48.010;11.326;2022-11-24T15:02:37;3.77;;;1.70;;
21297;SDS011;10808;48.010;11.326;2022-11-24T15:05:05;4.70;;;1.90;;
21297;SDS011;10808;48.010;11.326;2022-11-24T15:07:31;5.05;;;1.80;;
21297;SDS011;10808;48.010;11.326;2022-11-24T15:10:50;5.60;;;1.50;;
21297;SDS011;10808;48.010;11.326;2022-11-24T15:12:56;5.57;;;1.80;;
21297;SDS011;10808;48.010;11.326;2022-11-24T15:15:33;4.38;;;1.90;;
21297;SDS011;10808;48.010;11.326;2022-11-24T15:18:02;4.60;;;1.80;;
21297;SDS011;10808;48.010;11.326;2022-11-24T15:20:30;5.88;;;2.15;;
21297;SDS011;10808;48.010;11.326;2022-11-24T15:23:19;5.45;;;1.70;;
21297;SDS011;10808;48.010;11.326;2022-11-24T15:25:50;4.60;;;1.60;;
21297;SDS011;10808;48.010;11.326;2022-11-24T15:28:21;3.70;;;1.60;;
21297;SDS011;10808;48.010;11.326;2022-11-24T15:31:00;5.30;;;2.30;;
21297;SDS011;10808;48.010;11.326;2022-11-24T15:33:28;6.50;;;2.17;;
21297;SDS011;10808;48.010;11.326;2022-11-24T15:35:55;6.10;;;2.55;;
21297;SDS011;10808;48.010;11.326;2022-11-24T15:38:22;6.78;;;2.20;;
21297;SDS011;10808;48.010;11.326;2022-11-24T15:40:52;5.18;;;2.00;;
21297;SDS011;10808;48.010;11.326;2022-11-24T15:43:41;7.27;;;2.13;;
21297;SDS011;10808;48.010;11.326;2022-11-24T15:46:07;5.55;;;2.00;;
21297;SDS011;10808;48.010;11.326;2022-11-24T15:48:34;6.18;;;2.17;;
21297;SDS011;10808;48.010;11.326;2022-11-24T15:51:03;8.03;;;2.60;;
21297;SDS011;10808;48.010;11.326;2022-11-24T15:56:32;6.95;;;2.70;;
21297;SDS011;10808;48.010;11.326;2022-11-24T15:59:00;7.30;;;2.85;;
21297;SDS011;10808;48.010;11.326;2022-11-24T16:01:28;6.70;;;2.70;;
21297;SDS011;10808;48.010;11.326;2022-11-24T16:03:56;7.17;;;2.73;;
21297;SDS011;10808;48.010;11.326;2022-11-24T16:06:22;8.07;;;3.60;;
21297;SDS011;10808;48.010;11.326;2022-11-24T16:08:48;6.25;;;2.50;;
21297;SDS011;10808;48.010;11.326;2022-11-24T16:11:14;7.85;;;2.80;;
21297;SDS011;10808;48.010;11.326;2022-11-24T16:13:40;5.47;;;2.30;;
21297;SDS011;10808;48.010;11.326;2022-11-24T16:16:06;7.30;;;2.90;;
21297;SDS011;10808;48.010;11.326;2022-11-24T16:18:34;9.57;;;3.40;;
21297;SDS011;10808;48.010;11.326;2022-11-24T16:21:04;5.50;;;3.03;;
21297;SDS011;10808;48.010;11.326;2022-11-24T16:23:31;6.63;;;3.53;;
21297;SDS011;10808;48.010;11.326;2022-11-24T16:25:57;10.75;;;4.90;;
21297;SDS011;10808;48.010;11.326;2022-11-24T16:28:23;10.05;;;5.43;;
21297;SDS011;10808;48.010;11.326;2022-11-24T16:30:49;13.30;;;7.20;;
21297;SDS011;10808;48.010;11.326;2022-11-24T16:33:15;13.38;;;7.82;;
21297;SDS011;10808;48.010;11.326;2022-11-24T16:35:45;8.68;;;4.32;;
21297;SDS011;10808;48.010;11.326;2022-11-24T16:38:14;7.67;;;3.20;;
21297;SDS011;10808;48.010;11.326;2022-11-24T16:40:43;7.13;;;2.80;;